< Typhoon 200307 2003 Season Typhoon 200309 >
Typhoon 200308 (KONI)
General InformationTrack Information on Google MapsDetailed Wind InformationList of All Images || NewsDisaster Info.WeblogResourceGoogle EarthGE AnimationAtom FeedGeoJSON
Detalied Best Track (Time Zone = UTC)
Year Month Day Hour Lat. Long. Pressure (hPa) Wind (kt) Class Image Chart
2003 7 15 00 9.4 134.8 1008 0 2 Image Chart
2003 7 15 06 9.7 133.7 1004 0 2 Image Chart
2003 7 15 12 10.0 132.0 1006 0 2 Image Chart
2003 7 15 18 9.9 130.6 1004 0 2 Image Chart
2003 7 16 00 9.6 130.3 1002 0 2 Image Chart
2003 7 16 06 9.8 129.2 1002 0 2 Image Chart
2003 7 16 12 10.3 128.3 1002 0 2 Image Chart
2003 7 16 18 10.8 126.7 1002 0 2 Image Chart
2003 7 17 00 10.9 125.9 1000 0 2 Image Chart
2003 7 17 06 11.4 124.6 1000 0 2 Image Chart
2003 7 17 12 12.2 122.5 1000 0 2 Image Chart
2003 7 17 18 12.4 121.9 1000 0 2 Image Chart
2003 7 18 00 12.4 120.3 1000 0 2 Image Chart
2003 7 18 06 12.3 119.1 998 35 3 Image Chart
2003 7 18 12 12.5 118.5 998 40 3 Image Chart
2003 7 18 18 12.8 117.9 996 40 3 Image Chart
2003 7 19 00 13.5 117.2 994 40 3 Image Chart
2003 7 19 06 14.5 116.7 992 45 3 Image Chart
2003 7 19 12 15.0 116.4 992 45 3 Image Chart
2003 7 19 18 15.5 116.0 990 45 3 Image Chart
2003 7 20 00 16.4 115.0 985 50 4 Image Chart
2003 7 20 06 16.9 114.2 980 55 4 Image Chart
2003 7 20 12 17.8 113.7 980 55 4 Image Chart
2003 7 20 18 18.1 112.1 975 60 4 Image Chart
2003 7 21 00 18.2 111.3 975 60 4 Image Chart
2003 7 21 06 18.5 110.9 975 55 4 Image Chart
2003 7 21 12 18.5 110.2 980 50 4 Image Chart
2003 7 21 18 19.2 109.1 985 45 3 Image Chart
2003 7 22 00 19.6 107.8 985 45 3 Image Chart
2003 7 22 06 20.0 106.5 985 45 3 Image Chart
2003 7 22 12 20.2 105.0 990 40 3 Image Chart
2003 7 22 18 20.0 103.0 998 0 2 Image Chart
Japan Meteorological Agency Best Track Data | Correction Date : 2004-02-17
< Typhoon 200307 2003 Season Typhoon 200309 >

Help